Time,TemperatureF,DewpointF,PressureIn,WindDirection,WindDirectionDegrees,WindSpeedMPH,WindSpeedGustMPH,Humidity,HourlyPrecipIn,Conditions,Clouds,dailyrainin,SoftwareType,DateUTC
2013-05-11 00:01:00,64.0,63.4,29.94,SW,227,1.2,1.2,98,0.01,RA,FEW,0.00,WeatherDisplay:10.37,2013-05-11 05:01:00,
2013-05-11 00:06:00,64.0,63.4,29.94,South,190,4.6,4.6,98,0.01,RA,FEW,0.00,WeatherDisplay:10.37,2013-05-11 05:06:00,
2013-05-11 00:11:00,63.8,63.2,29.94,WNW,303,3.2,3.2,98,0.01,OVC,FEW,0.00,WeatherDisplay:10.37,2013-05-11 05:11:00,
2013-05-11 00:16:00,63.7,62.8,29.95,NNW,327,2.3,2.3,97,0.01,OVC,FEW,0.00,WeatherDisplay:10.37,2013-05-11 05:16:00,
2013-05-11 00:21:00,63.7,62.8,29.95,North,10,2.3,2.3,97,0.01,OVC,FEW,0.00,WeatherDisplay:10.37,2013-05-11 05:21:00,
2013-05-11 00:26:00,63.7,62.8,29.95,NW,311,3.5,3.5,97,0.01,OVC,FEW,0.00,WeatherDisplay:10.37,2013-05-11 05:26:00,
2013-05-11 00:31:00,63.7,62.8,29.95,NNW,347,3.2,3.5,97,0.01,OVC,FEW,0.00,WeatherDisplay:10.37,2013-05-11 05:31:00,
2013-05-11 00:36:00,63.6,62.7,29.95,NW,315,1.2,1.2,97,0.01,OVC,FEW,0.00,WeatherDisplay:10.37,2013-05-11 05:36:00,
2013-05-11 00:41:00,63.6,62.7,29.94,WNW,284,1.2,1.2,97,0.01,OVC,FEW,0.00,WeatherDisplay:10.37,2013-05-11 05:41:00,
2013-05-11 00:46:00,63.6,62.7,29.95,WNW,284,0.0,0.0,97,0.01,OVC,FEW,0.00,WeatherDisplay:10.37,2013-05-11 05:46:00,
2013-05-11 00:51:00,63.6,62.7,29.94,WNW,284,0.0,0.0,97,0.00,-DZ,FEW,0.00,WeatherDisplay:10.37,2013-05-11 05:51:00,
2013-05-11 00:56:00,63.5,62.6,29.94,NNW,332,4.6,4.6,97,0.00,-DZ,FEW,0.00,WeatherDisplay:10.37,2013-05-11 05:56:00,
2013-05-11 01:01:00,63.4,62.5,29.94,NNW,331,3.5,3.5,97,0.00,-RA,FEW,0.00,WeatherDisplay:10.37,2013-05-11 06:01:00,
2013-05-11 01:06:00,63.1,62.2,29.94,NNW,339,2.3,2.3,97,0.01,-RA,FEW,0.01,WeatherDisplay:10.37,2013-05-11 06:06:00,
2013-05-11 01:11:00,63.0,61.8,29.95,NNW,336,4.6,4.6,96,0.01,-RA,FEW,0.01,WeatherDisplay:10.37,2013-05-11 06:11:00,
2013-05-11 01:16:00,62.7,61.5,29.95,WNW,300,5.8,5.8,96,0.01,-RA,FEW,0.01,WeatherDisplay:10.37,2013-05-11 06:16:00,
2013-05-11 01:22:00,62.3,60.8,29.94,North,360,5.8,5.8,95,0.01,-DZ,FEW,0.01,WeatherDisplay:10.37,2013-05-11 06:22:00,
2013-05-11 01:27:00,62.0,60.3,29.94,North,355,6.9,6.9,94,0.01,-DZ,FEW,0.01,WeatherDisplay:10.37,2013-05-11 06:27:00,
2013-05-11 01:32:00,61.8,60.1,29.94,NW,318,6.9,6.9,94,0.01,-DZ,FEW,0.01,WeatherDisplay:10.37,2013-05-11 06:32:00,
2013-05-11 01:37:00,61.6,60.2,29.94,NW,315,2.3,2.3,95,0.01,-RA,FEW,0.01,WeatherDisplay:10.37,2013-05-11 06:37:00,
2013-05-11 01:42:00,61.4,60.0,29.94,NW,315,0.0,0.0,95,0.01,-RA,FEW,0.01,WeatherDisplay:10.37,2013-05-11 06:42:00,
2013-05-11 01:47:00,61.3,59.9,29.94,NNW,348,0.0,0.3,95,0.01,-RA,FEW,0.01,WeatherDisplay:10.37,2013-05-11 06:47:00,
2013-05-11 01:52:00,61.2,60.1,29.94,NNW,348,0.0,0.0,96,0.01,-DZ,FEW,0.01,WeatherDisplay:10.37,2013-05-11 06:52:00,
2013-05-11 01:57:00,61.1,60.0,29.93,NNW,348,0.0,0.0,96,0.01,-DZ,FEW,0.01,WeatherDisplay:10.37,2013-05-11 06:57:00,
2013-05-11 02:02:00,60.9,59.8,29.94,NNW,348,0.0,0.0,96,0.01,OVC,FEW,0.01,WeatherDisplay:10.37,2013-05-11 07:02:00,
2013-05-11 02:07:00,60.8,59.7,29.94,WNW,296,0.0,0.0,96,0.00,OVC,FEW,0.01,WeatherDisplay:10.37,2013-05-11 07:07:00,
2013-05-11 02:12:00,60.7,59.6,29.94,WNW,296,0.0,0.0,96,0.00,OVC,FEW,0.01,WeatherDisplay:10.37,2013-05-11 07:12:00,
2013-05-11 02:17:00,60.8,59.9,29.95,WNW,283,0.0,0.0,97,0.00,OVC,FEW,0.01,WeatherDisplay:10.37,2013-05-11 07:17:00,
2013-05-11 02:22:00,60.9,60.0,29.94,SW,234,1.2,1.2,97,0.00,OVC,FEW,0.01,WeatherDisplay:10.37,2013-05-11 07:22:00,
2013-05-11 02:27:00,61.0,60.1,29.94,SW,234,0.0,0.0,97,0.00,OVC,FEW,0.01,WeatherDisplay:10.37,2013-05-11 07:27:00,
2013-05-11 02:32:00,61.0,60.1,29.94,WNW,295,1.2,0.0,97,0.00,OVC,FEW,0.01,WeatherDisplay:10.37,2013-05-11 07:32:00,
2013-05-11 02:37:00,60.9,60.0,29.94,NW,312,1.2,0.0,97,0.00,OVC,FEW,0.01,WeatherDisplay:10.37,2013-05-11 07:37:00,
2013-05-11 02:42:00,60.8,59.9,29.94,NNW,331,1.2,1.2,97,0.00,OVC,FEW,0.01,WeatherDisplay:10.37,2013-05-11 07:42:00,
2013-05-11 02:47:00,60.7,59.6,29.94,West,272,0.0,0.0,96,0.00,OVC,FEW,0.01,WeatherDisplay:10.37,2013-05-11 07:47:00,
2013-05-11 02:52:00,60.4,59.3,29.94,NNE,33,3.5,3.5,96,0.00,BKN,FEW,0.01,WeatherDisplay:10.37,2013-05-11 07:52:00,
2013-05-11 02:57:00,60.2,59.1,29.94,NW,313,3.5,3.5,96,0.00,BKN,FEW,0.01,WeatherDisplay:10.37,2013-05-11 07:57:00,
2013-05-11 03:02:00,60.0,58.9,29.94,NW,304,1.2,1.2,96,0.00,BKN,FEW,0.01,WeatherDisplay:10.37,2013-05-11 08:02:00,
2013-05-11 03:07:00,59.8,58.7,29.94,NW,319,1.2,1.2,96,0.00,BKN,FEW,0.01,WeatherDisplay:10.37,2013-05-11 08:07:00,
2013-05-11 03:12:00,59.6,58.5,29.94,NW,319,0.0,0.0,96,0.00,BKN,FEW,0.01,WeatherDisplay:10.37,2013-05-11 08:12:00,
2013-05-11 03:17:00,59.4,58.0,29.94,NW,320,2.3,2.3,95,0.00,BKN,FEW,0.01,WeatherDisplay:10.37,2013-05-11 08:17:00,
2013-05-11 03:22:00,59.3,58.2,29.94,NNE,18,0.0,0.0,96,0.00,BKN,FEW,0.01,WeatherDisplay:10.37,2013-05-11 08:22:00,
2013-05-11 03:27:00,59.0,57.9,29.95,West,280,2.3,0.0,96,0.00,BKN,FEW,0.01,WeatherDisplay:10.37,2013-05-11 08:27:00,
2013-05-11 03:32:00,59.0,57.9,29.95,NNW,334,2.3,2.3,96,0.00,BKN,FEW,0.01,WeatherDisplay:10.37,2013-05-11 08:32:00,
2013-05-11 03:37:00,59.0,57.9,29.95,NNW,340,0.0,0.0,96,0.00,BKN,FEW,0.01,WeatherDisplay:10.37,2013-05-11 08:37:00,
2013-05-11 03:42:00,59.0,57.9,29.95,NNE,19,3.5,3.5,96,0.00,BKN,FEW,0.01,WeatherDisplay:10.37,2013-05-11 08:42:00,
2013-05-11 03:47:00,59.0,57.9,29.94,NNE,19,0.0,0.0,96,0.00,BKN,FEW,0.01,WeatherDisplay:10.37,2013-05-11 08:47:00,
2013-05-11 03:52:00,58.9,57.8,29.94,NNW,344,2.3,2.3,96,0.00,BKN,FEW,0.01,WeatherDisplay:10.37,2013-05-11 08:52:00,
2013-05-11 03:57:00,58.7,57.6,29.94,NNW,344,0.0,0.0,96,0.00,BKN,FEW,0.01,WeatherDisplay:10.37,2013-05-11 08:57:00,
2013-05-11 04:02:00,58.6,57.5,29.94,NNW,344,0.0,0.0,96,0.00,BKN,FEW,0.01,WeatherDisplay:10.37,2013-05-11 09:02:00,
2013-05-11 04:07:00,58.5,57.4,29.94,NNW,344,0.0,0.0,96,0.00,BKN,FEW,0.01,WeatherDisplay:10.37,2013-05-11 09:07:00,
2013-05-11 04:12:00,58.4,57.3,29.94,NNW,340,0.0,0.0,96,0.00,BKN,FEW,0.01,WeatherDisplay:10.37,2013-05-11 09:12:00,
2013-05-11 04:17:00,58.2,57.1,29.95,NNW,341,0.0,0.0,96,0.01,RA,FEW,0.02,WeatherDisplay:10.37,2013-05-11 09:17:00,
2013-05-11 04:22:00,58.1,57.0,29.94,North,351,3.5,3.5,96,0.01,RA,FEW,0.02,WeatherDisplay:10.37,2013-05-11 09:22:00,
2013-05-11 04:27:00,58.2,57.4,29.94,North,355,1.2,1.2,97,0.01,BKN,FEW,0.02,WeatherDisplay:10.37,2013-05-11 09:27:00,
2013-05-11 04:32:00,58.1,57.0,29.94,North,360,0.0,0.0,96,0.01,BKN,FEW,0.02,WeatherDisplay:10.37,2013-05-11 09:32:00,
2013-05-11 04:37:00,58.0,56.9,29.94,North,360,0.0,0.0,96,0.01,BKN,FEW,0.02,WeatherDisplay:10.37,2013-05-11 09:37:00,
2013-05-11 04:42:00,57.9,56.8,29.94,North,355,0.0,0.0,96,0.01,BKN,FEW,0.02,WeatherDisplay:10.37,2013-05-11 09:42:00,
2013-05-11 04:47:00,57.9,56.8,29.94,North,355,1.2,1.2,96,0.01,BKN,FEW,0.02,WeatherDisplay:10.37,2013-05-11 09:47:00,
2013-05-11 04:52:00,57.8,57.0,29.94,NNW,331,1.2,1.2,97,0.01,BKN,FEW,0.02,WeatherDisplay:10.37,2013-05-11 09:52:00,
2013-05-11 04:57:00,57.9,57.1,29.94,NW,308,4.6,4.6,97,0.01,BKN,FEW,0.02,WeatherDisplay:10.37,2013-05-11 09:57:00,
2013-05-11 05:02:00,57.8,56.7,29.94,NNW,336,3.5,3.5,96,0.01,BKN,FEW,0.02,WeatherDisplay:10.37,2013-05-11 10:02:00,
2013-05-11 05:07:00,57.8,56.7,29.94,North,360,3.5,3.5,96,0.01,BKN,FEW,0.02,WeatherDisplay:10.37,2013-05-11 10:07:00,
2013-05-11 05:12:00,57.8,56.7,29.94,NW,306,8.1,8.1,96,0.01,BKN,FEW,0.02,WeatherDisplay:10.37,2013-05-11 10:12:00,
2013-05-11 05:17:00,57.8,56.7,29.94,WNW,291,4.6,4.6,96,0.00,BKN,FEW,0.02,WeatherDisplay:10.37,2013-05-11 10:17:00,
2013-05-11 05:22:00,57.8,56.7,29.94,NW,325,3.5,3.5,96,0.00,BKN,FEW,0.02,WeatherDisplay:10.37,2013-05-11 10:22:00,
2013-05-11 05:27:00,57.8,56.7,29.95,NW,313,1.2,1.8,96,0.00,BKN,FEW,0.02,WeatherDisplay:10.37,2013-05-11 10:27:00,
2013-05-11 05:32:00,57.8,56.7,29.95,WNW,301,4.6,4.6,96,0.00,BKN,FEW,0.02,WeatherDisplay:10.37,2013-05-11 10:32:00,
2013-05-11 05:37:00,57.7,56.6,29.95,NNW,337,2.3,2.3,96,0.00,BKN,FEW,0.02,WeatherDisplay:10.37,2013-05-11 10:37:00,
2013-05-11 05:42:00,57.7,56.6,29.95,NNW,343,2.3,0.0,96,0.00,BKN,FEW,0.02,WeatherDisplay:10.37,2013-05-11 10:42:00,
2013-05-11 05:47:00,57.8,56.7,29.95,North,350,0.0,0.0,96,0.00,BKN,FEW,0.02,WeatherDisplay:10.37,2013-05-11 10:47:00,
2013-05-11 05:52:00,57.8,56.7,29.96,North,350,1.2,0.0,96,0.00,BKN,FEW,0.02,WeatherDisplay:10.37,2013-05-11 10:52:00,
2013-05-11 05:57:00,57.8,56.7,29.96,North,11,1.2,0.0,96,0.01,RA,FEW,0.03,WeatherDisplay:10.37,2013-05-11 10:57:00,
2013-05-11 06:02:00,57.8,56.7,29.96,NNW,342,0.0,0.2,96,0.01,RA,FEW,0.03,WeatherDisplay:10.37,2013-05-11 11:02:00,
2013-05-11 06:07:00,57.8,56.7,29.96,NNW,344,1.2,1.2,96,0.01,BKN,FEW,0.03,WeatherDisplay:10.37,2013-05-11 11:07:00,
2013-05-11 06:12:00,57.9,57.1,29.97,NW,312,0.0,0.3,97,0.01,BKN,FEW,0.03,WeatherDisplay:10.37,2013-05-11 11:12:00,
2013-05-11 06:17:00,57.8,56.7,29.97,WNW,286,0.0,0.0,96,0.01,BKN,FEW,0.03,WeatherDisplay:10.37,2013-05-11 11:17:00,
2013-05-11 06:29:00,57.8,57.0,29.98,WNW,286,0.0,0.0,97,0.01,FEW,,0.03,WeatherDisplay:10.37,2013-05-11 11:29:00,
2013-05-11 06:34:00,57.8,57.0,29.99,West,279,1.2,0.0,97,0.01,FEW,,0.03,WeatherDisplay:10.37,2013-05-11 11:34:00,
2013-05-11 06:39:00,57.9,57.1,29.99,West,279,0.0,0.0,97,0.01,FEW,,0.03,WeatherDisplay:10.37,2013-05-11 11:39:00,
2013-05-11 06:44:00,58.1,57.3,29.99,West,281,1.2,1.2,97,0.01,FEW,,0.03,WeatherDisplay:10.37,2013-05-11 11:44:00,
2013-05-11 06:49:00,58.0,57.2,29.99,NNW,344,3.5,3.5,97,0.01,FEW,,0.03,WeatherDisplay:10.37,2013-05-11 11:49:00,
2013-05-11 06:54:00,57.9,56.8,29.99,West,281,1.2,1.2,96,0.01,FEW,,0.03,WeatherDisplay:10.37,2013-05-11 11:54:00,
2013-05-11 06:59:00,57.9,56.8,29.99,NW,319,1.2,0.0,96,0.00,FEW,,0.03,WeatherDisplay:10.37,2013-05-11 11:59:00,
2013-05-11 07:04:00,57.9,56.5,29.98,NW,318,0.0,0.0,95,0.00,OVC,FEW,0.03,WeatherDisplay:10.37,2013-05-11 12:04:00,
2013-05-11 07:09:00,57.8,56.1,29.98,NW,304,4.6,4.6,94,0.00,OVC,FEW,0.03,WeatherDisplay:10.37,2013-05-11 12:09:00,
2013-05-11 07:14:00,57.9,56.5,29.98,NW,317,4.6,4.6,95,0.00,OVC,FEW,0.03,WeatherDisplay:10.37,2013-05-11 12:14:00,
2013-05-11 07:19:00,57.9,56.2,29.98,NNW,343,0.0,0.0,94,0.00,OVC,FEW,0.03,WeatherDisplay:10.37,2013-05-11 12:19:00,
2013-05-11 07:24:00,57.9,55.9,29.98,WNW,298,5.8,5.8,93,0.00,OVC,FEW,0.03,WeatherDisplay:10.37,2013-05-11 12:24:00,
2013-05-11 07:29:00,57.9,56.2,29.98,WNW,298,1.2,0.0,94,0.00,OVC,FEW,0.03,WeatherDisplay:10.37,2013-05-11 12:29:00,
2013-05-11 07:34:00,57.9,55.9,29.98,WNW,290,2.3,2.3,93,0.00,OVC,FEW,0.03,WeatherDisplay:10.37,2013-05-11 12:34:00,
2013-05-11 07:39:00,58.0,55.7,29.98,NW,307,3.5,3.5,92,0.00,OVC,FEW,0.03,WeatherDisplay:10.37,2013-05-11 12:39:00,
2013-05-11 07:44:00,58.1,56.1,29.98,NE,41,2.3,2.3,93,0.00,OVC,FEW,0.03,WeatherDisplay:10.37,2013-05-11 12:44:00,
2013-05-11 07:49:00,58.1,56.1,29.98,WNW,296,2.3,2.3,93,0.00,OVC,FEW,0.03,WeatherDisplay:10.37,2013-05-11 12:49:00,
2013-05-11 07:54:00,58.2,56.2,29.98,NW,316,1.2,1.2,93,0.00,OVC,FEW,0.03,WeatherDisplay:10.37,2013-05-11 12:54:00,
2013-05-11 07:59:00,58.3,55.7,29.98,NW,306,3.5,3.5,91,0.00,OVC,FEW,0.03,WeatherDisplay:10.37,2013-05-11 12:59:00,
2013-05-11 08:04:00,58.6,56.9,29.99,NW,315,4.6,4.6,94,0.00,FEW,,0.03,WeatherDisplay:10.37,2013-05-11 13:04:00,
2013-05-11 08:09:00,58.6,55.1,29.99,NNW,331,5.8,5.8,88,0.00,FEW,,0.03,WeatherDisplay:10.37,2013-05-11 13:09:00,
2013-05-11 08:14:00,58.7,55.5,29.99,West,269,4.6,4.6,89,0.00,FEW,,0.03,WeatherDisplay:10.37,2013-05-11 13:14:00,
2013-05-11 08:19:00,58.6,55.1,29.99,WNW,302,4.6,4.6,88,0.00,FEW,,0.03,WeatherDisplay:10.37,2013-05-11 13:19:00,
2013-05-11 08:24:00,58.6,54.7,29.99,WNW,299,5.8,5.8,87,0.00,BKN,FEW,0.03,WeatherDisplay:10.37,2013-05-11 13:24:00,
2013-05-11 08:29:00,58.6,55.4,29.99,WNW,302,0.0,0.0,89,0.00,BKN,FEW,0.03,WeatherDisplay:10.37,2013-05-11 13:29:00,
2013-05-11 08:34:00,59.3,56.1,29.99,NNE,16,3.2,3.2,89,0.00,BKN,FEW,0.03,WeatherDisplay:10.37,2013-05-11 13:34:00,
2013-05-11 08:39:00,60.0,56.1,29.99,NW,304,3.5,3.5,87,0.00,OVC,FEW,0.03,WeatherDisplay:10.37,2013-05-11 13:39:00,
2013-05-11 08:44:00,60.4,55.5,29.98,NW,307,3.5,3.5,84,0.00,OVC,FEW,0.03,WeatherDisplay:10.37,2013-05-11 13:44:00,
2013-05-11 08:49:00,60.7,56.8,29.98,WNW,302,3.5,3.5,87,0.00,OVC,FEW,0.03,WeatherDisplay:10.37,2013-05-11 13:49:00,
2013-05-11 08:54:00,61.0,56.5,29.99,NNW,329,3.5,3.5,85,0.00,OVC,FEW,0.03,WeatherDisplay:10.37,2013-05-11 13:54:00,
2013-05-11 08:59:00,61.3,57.1,29.99,WNW,289,1.2,1.2,86,0.00,OVC,FEW,0.03,WeatherDisplay:10.37,2013-05-11 13:59:00,
2013-05-11 09:04:00,61.4,56.8,29.99,WSW,237,2.3,2.3,85,0.00,OVC,FEW,0.03,WeatherDisplay:10.37,2013-05-11 14:04:00,
2013-05-11 09:09:00,61.3,56.1,30.00,NW,306,4.6,4.6,83,0.00,OVC,FEW,0.03,WeatherDisplay:10.37,2013-05-11 14:09:00,
2013-05-11 09:14:00,61.1,55.9,30.01,WSW,246,4.6,4.6,83,0.00,OVC,FEW,0.03,WeatherDisplay:10.37,2013-05-11 14:14:00,
2013-05-11 09:19:00,60.9,55.7,30.01,NW,304,6.9,6.9,83,0.01,RA,FEW,0.04,WeatherDisplay:10.37,2013-05-11 14:19:00,
2013-05-11 09:24:00,60.8,56.3,30.01,WSW,254,1.2,1.2,85,0.01,RA,FEW,0.04,WeatherDisplay:10.37,2013-05-11 14:24:00,
2013-05-11 09:29:00,60.8,55.9,30.01,North,351,1.2,1.4,84,0.01,OVC,FEW,0.04,WeatherDisplay:10.37,2013-05-11 14:29:00,
2013-05-11 09:34:00,60.7,55.5,30.01,NNW,327,4.6,4.6,83,0.01,OVC,FEW,0.04,WeatherDisplay:10.37,2013-05-11 14:34:00,
2013-05-11 09:39:00,60.5,55.3,30.00,NNW,335,3.5,3.5,83,0.01,SCT,FEW,0.04,WeatherDisplay:10.37,2013-05-11 14:39:00,
2013-05-11 09:45:00,60.4,54.9,30.01,West,267,5.8,5.8,82,0.01,SCT,FEW,0.04,WeatherDisplay:10.37,2013-05-11 14:45:00,
2013-05-11 09:50:00,60.5,56.0,30.00,NW,308,3.5,3.5,85,0.01,SCT,FEW,0.04,WeatherDisplay:10.37,2013-05-11 14:50:00,
2013-05-11 09:55:00,60.7,55.2,30.00,NW,325,5.8,5.8,82,0.01,OVC,FEW,0.04,WeatherDisplay:10.37,2013-05-11 14:55:00,
2013-05-11 10:00:00,60.9,56.0,30.00,North,5,5.8,5.8,84,0.01,OVC,FEW,0.04,WeatherDisplay:10.37,2013-05-11 15:00:00,
2013-05-11 10:05:00,60.9,55.0,30.00,WNW,285,3.5,3.5,81,0.01,OVC,FEW,0.04,WeatherDisplay:10.37,2013-05-11 15:05:00,
2013-05-11 10:10:00,60.9,55.0,30.01,North,5,3.5,4.0,81,0.01,OVC,FEW,0.04,WeatherDisplay:10.37,2013-05-11 15:10:00,
2013-05-11 10:15:00,60.8,54.6,30.01,North,5,5.8,5.8,80,0.01,OVC,FEW,0.04,WeatherDisplay:10.37,2013-05-11 15:15:00,
2013-05-11 10:20:00,60.6,55.1,30.01,WNW,292,2.3,2.3,82,0.00,OVC,FEW,0.04,WeatherDisplay:10.37,2013-05-11 15:20:00,
2013-05-11 10:25:00,60.5,54.6,30.01,NNW,333,4.6,4.6,81,0.00,OVC,FEW,0.04,WeatherDisplay:10.37,2013-05-11 15:25:00,
2013-05-11 10:30:00,60.5,55.3,30.00,NW,311,3.5,3.5,83,0.00,OVC,FEW,0.04,WeatherDisplay:10.37,2013-05-11 15:30:00,
2013-05-11 10:35:00,60.5,54.3,30.01,WNW,294,8.1,8.1,80,0.00,OVC,FEW,0.04,WeatherDisplay:10.37,2013-05-11 15:35:00,
2013-05-11 10:40:00,60.5,54.6,30.01,NNW,342,2.3,2.3,81,0.00,OVC,FEW,0.04,WeatherDisplay:10.37,2013-05-11 15:40:00,
2013-05-11 10:45:00,60.6,55.1,30.01,NW,321,3.5,3.5,82,0.00,OVC,FEW,0.04,WeatherDisplay:10.37,2013-05-11 15:45:00,
2013-05-11 10:50:00,60.4,54.2,30.01,WNW,299,8.1,8.1,80,0.00,OVC,FEW,0.04,WeatherDisplay:10.37,2013-05-11 15:50:00,
2013-05-11 10:55:00,60.0,54.2,30.01,NNW,336,4.3,4.3,81,0.01,RA,FEW,0.05,WeatherDisplay:10.37,2013-05-11 15:55:00,
2013-05-11 11:00:00,59.9,54.4,30.01,WNW,300,4.6,4.6,82,0.01,RA,FEW,0.05,WeatherDisplay:10.37,2013-05-11 16:00:00,
2013-05-11 11:05:00,60.1,55.2,30.02,NW,310,5.8,5.8,84,0.01,OVC,FEW,0.05,WeatherDisplay:10.37,2013-05-11 16:05:00,
2013-05-11 11:10:00,60.4,54.2,30.02,WNW,299,6.9,6.9,80,0.01,OVC,FEW,0.05,WeatherDisplay:10.37,2013-05-11 16:10:00,
2013-05-11 11:15:00,60.6,54.0,30.02,NW,315,4.6,4.6,79,0.01,OVC,FEW,0.05,WeatherDisplay:10.37,2013-05-11 16:15:00,
2013-05-11 11:20:00,61.0,54.8,30.01,NNW,337,6.9,6.9,80,0.01,OVC,FEW,0.05,WeatherDisplay:10.37,2013-05-11 16:20:00,
2013-05-11 11:25:00,61.1,55.6,30.01,WNW,301,8.1,8.1,82,0.01,OVC,FEW,0.05,WeatherDisplay:10.37,2013-05-11 16:25:00,
2013-05-11 11:30:00,61.2,54.6,30.01,NW,308,4.6,4.6,79,0.01,OVC,FEW,0.05,WeatherDisplay:10.37,2013-05-11 16:30:00,
2013-05-11 11:35:00,61.1,54.2,30.01,WNW,302,8.1,8.1,78,0.01,OVC,FEW,0.05,WeatherDisplay:10.37,2013-05-11 16:35:00,
2013-05-11 11:40:00,61.1,54.5,30.01,WNW,296,8.6,8.6,79,0.01,OVC,FEW,0.05,WeatherDisplay:10.37,2013-05-11 16:40:00,
2013-05-11 11:45:00,61.1,54.5,30.01,WNW,298,5.8,5.8,79,0.01,OVC,FEW,0.05,WeatherDisplay:10.37,2013-05-11 16:45:00,
2013-05-11 11:50:00,61.1,53.8,30.01,WNW,282,4.6,4.6,77,0.01,OVC,FEW,0.05,WeatherDisplay:10.37,2013-05-11 16:50:00,
2013-05-11 11:55:00,61.0,55.5,30.01,NW,316,2.3,2.3,82,0.00,OVC,FEW,0.05,WeatherDisplay:10.37,2013-05-11 16:55:00,
2013-05-11 12:00:00,61.4,55.2,30.01,NNW,334,3.5,3.5,80,0.00,OVC,FEW,0.05,WeatherDisplay:10.37,2013-05-11 17:00:00,
2013-05-11 12:05:00,62.0,54.7,30.01,WNW,298,3.5,3.5,77,0.00,OVC,FEW,0.05,WeatherDisplay:10.37,2013-05-11 17:05:00,
2013-05-11 12:10:00,62.1,54.1,30.01,SW,229,3.5,3.5,75,0.00,OVC,FEW,0.05,WeatherDisplay:10.37,2013-05-11 17:10:00,
2013-05-11 12:15:00,62.0,54.7,30.01,West,269,8.1,8.1,77,0.00,OVC,FEW,0.05,WeatherDisplay:10.37,2013-05-11 17:15:00,
2013-05-11 12:20:00,62.0,54.3,30.01,North,11,9.2,9.2,76,0.00,OVC,FEW,0.05,WeatherDisplay:10.37,2013-05-11 17:20:00,
2013-05-11 12:25:00,61.9,54.6,30.01,WNW,289,5.8,5.8,77,0.00,OVC,FEW,0.05,WeatherDisplay:10.37,2013-05-11 17:25:00,
2013-05-11 12:30:00,61.8,54.9,30.01,NW,317,3.5,3.5,78,0.00,OVC,FEW,0.05,WeatherDisplay:10.37,2013-05-11 17:30:00,
2013-05-11 12:35:00,61.7,54.4,30.01,North,5,8.6,8.6,77,0.00,OVC,FEW,0.05,WeatherDisplay:10.37,2013-05-11 17:35:00,
2013-05-11 12:40:00,61.3,54.4,30.01,WNW,301,8.1,8.1,78,0.00,OVC,FEW,0.05,WeatherDisplay:10.37,2013-05-11 17:40:00,
2013-05-11 12:45:00,61.5,56.6,30.01,WNW,288,3.5,3.5,84,0.00,OVC,FEW,0.05,WeatherDisplay:10.37,2013-05-11 17:45:00,
2013-05-11 12:50:00,61.8,54.9,30.01,NNW,347,5.8,5.8,78,0.00,OVC,FEW,0.05,WeatherDisplay:10.37,2013-05-11 17:50:00,
2013-05-11 12:55:00,62.0,54.7,30.01,North,350,5.8,5.8,77,0.00,OVC,FEW,0.05,WeatherDisplay:10.37,2013-05-11 17:55:00,
2013-05-11 13:00:00,61.7,54.4,30.01,NNW,340,4.6,4.6,77,0.00,OVC,FEW,0.05,WeatherDisplay:10.37,2013-05-11 18:00:00,
2013-05-11 13:05:00,61.6,54.7,30.01,WNW,296,2.3,2.3,78,0.00,OVC,FEW,0.05,WeatherDisplay:10.37,2013-05-11 18:05:00,
2013-05-11 13:10:00,61.7,54.8,30.00,NW,317,4.6,4.6,78,0.00,OVC,FEW,0.05,WeatherDisplay:10.37,2013-05-11 18:10:00,
2013-05-11 13:15:00,62.1,55.2,30.00,NNE,28,4.6,4.6,78,0.00,OVC,FEW,0.05,WeatherDisplay:10.37,2013-05-11 18:15:00,
2013-05-11 13:20:00,62.4,55.4,30.00,WNW,286,3.5,3.5,78,0.00,OVC,FEW,0.05,WeatherDisplay:10.37,2013-05-11 18:20:00,
2013-05-11 13:25:00,62.6,54.6,30.00,West,281,1.2,0.0,75,0.00,OVC,FEW,0.05,WeatherDisplay:10.37,2013-05-11 18:25:00,
2013-05-11 13:30:00,62.8,55.1,30.00,WNW,295,2.3,2.3,76,0.00,OVC,FEW,0.05,WeatherDisplay:10.37,2013-05-11 18:30:00,
2013-05-11 13:35:00,62.9,54.9,30.00,NW,315,10.4,10.4,75,0.00,OVC,FEW,0.05,WeatherDisplay:10.37,2013-05-11 18:35:00,
2013-05-11 13:40:00,63.3,54.1,30.01,WNW,289,4.6,4.6,72,0.00,OVC,FEW,0.05,WeatherDisplay:10.37,2013-05-11 18:40:00,
2013-05-11 13:45:00,63.8,54.2,30.01,NW,322,8.1,8.1,71,0.00,OVC,FEW,0.05,WeatherDisplay:10.37,2013-05-11 18:45:00,
2013-05-11 13:50:00,64.1,54.5,30.01,North,355,5.8,5.8,71,0.00,OVC,FEW,0.05,WeatherDisplay:10.37,2013-05-11 18:50:00,
2013-05-11 13:55:00,64.3,55.5,30.01,NNE,17,5.8,5.8,73,0.00,OVC,FEW,0.05,WeatherDisplay:10.37,2013-05-11 18:55:00,
2013-05-11 14:00:00,64.5,56.0,30.00,North,9,3.5,3.5,74,0.00,OVC,FEW,0.05,WeatherDisplay:10.37,2013-05-11 19:00:00,
2013-05-11 14:05:00,64.6,54.6,30.01,WSW,251,4.6,4.6,70,0.00,OVC,FEW,0.05,WeatherDisplay:10.37,2013-05-11 19:05:00,
2013-05-11 14:10:00,64.5,54.9,30.01,NNW,345,2.3,2.3,71,0.00,OVC,FEW,0.05,WeatherDisplay:10.37,2013-05-11 19:10:00,
2013-05-11 14:15:00,64.8,54.0,30.01,East,98,2.3,2.3,68,0.00,OVC,FEW,0.05,WeatherDisplay:10.37,2013-05-11 19:15:00,
2013-05-11 14:20:00,65.3,54.5,30.01,SW,224,5.8,5.8,68,0.00,OVC,FEW,0.05,WeatherDisplay:10.37,2013-05-11 19:20:00,
2013-05-11 14:25:00,65.6,55.2,30.01,North,355,5.3,5.3,69,0.00,OVC,FEW,0.05,WeatherDisplay:10.37,2013-05-11 19:25:00,
2013-05-11 14:30:00,65.5,55.5,30.01,WSW,250,3.5,3.5,70,0.00,OVC,FEW,0.05,WeatherDisplay:10.37,2013-05-11 19:30:00,
2013-05-11 14:35:00,65.5,53.8,30.01,NW,326,4.6,4.6,66,0.00,OVC,FEW,0.05,WeatherDisplay:10.37,2013-05-11 19:35:00,
2013-05-11 14:40:00,65.7,54.0,30.01,NW,321,2.3,2.3,66,0.00,OVC,FEW,0.05,WeatherDisplay:10.37,2013-05-11 19:40:00,
2013-05-11 14:45:00,66.0,56.7,30.01,NW,315,1.2,0.0,72,0.00,OVC,FEW,0.05,WeatherDisplay:10.37,2013-05-11 19:45:00,
2013-05-11 14:50:00,66.5,58.0,30.01,WNW,292,2.3,2.3,74,0.00,OVC,FEW,0.05,WeatherDisplay:10.37,2013-05-11 19:50:00,
2013-05-11 14:55:00,67.0,55.7,30.01,NNE,32,6.9,6.9,67,0.00,OVC,FEW,0.05,WeatherDisplay:10.37,2013-05-11 19:55:00,
2013-05-11 15:00:00,66.7,54.1,30.00,ENE,71,4.6,4.6,64,0.00,OVC,FEW,0.05,WeatherDisplay:10.37,2013-05-11 20:00:00,
2013-05-11 15:05:00,66.6,55.3,30.01,NNE,26,2.3,2.3,67,0.00,OVC,FEW,0.05,WeatherDisplay:10.37,2013-05-11 20:05:00,
2013-05-11 15:10:00,66.7,54.6,30.01,NNE,19,1.2,1.2,65,0.00,OVC,FEW,0.05,WeatherDisplay:10.37,2013-05-11 20:10:00,
2013-05-11 15:15:00,66.9,55.2,30.01,SW,225,3.5,3.5,66,0.00,OVC,FEW,0.05,WeatherDisplay:10.37,2013-05-11 20:15:00,
2013-05-11 15:20:00,67.4,56.1,30.00,NW,304,3.5,3.5,67,0.00,OVC,FEW,0.05,WeatherDisplay:10.37,2013-05-11 20:20:00,
2013-05-11 15:25:00,67.8,56.4,30.00,SSW,205,0.0,0.3,67,0.00,OVC,FEW,0.05,WeatherDisplay:10.37,2013-05-11 20:25:00,
2013-05-11 15:30:00,68.1,55.9,30.00,NW,307,4.6,4.6,65,0.00,OVC,FEW,0.05,WeatherDisplay:10.37,2013-05-11 20:30:00,
2013-05-11 15:35:00,68.3,56.9,30.00,WNW,289,5.8,5.8,67,0.00,OVC,FEW,0.05,WeatherDisplay:10.37,2013-05-11 20:35:00,
2013-05-11 15:40:00,68.6,55.9,30.00,NNW,333,3.5,3.5,64,0.00,OVC,FEW,0.05,WeatherDisplay:10.37,2013-05-11 20:40:00,
2013-05-11 15:46:00,68.8,56.1,30.00,North,5,1.2,3.2,64,0.00,OVC,FEW,0.05,WeatherDisplay:10.37,2013-05-11 20:46:00,
2013-05-11 15:51:00,68.7,55.6,30.00,WNW,302,4.6,4.6,63,0.00,OVC,FEW,0.05,WeatherDisplay:10.37,2013-05-11 20:51:00,
2013-05-11 15:56:00,68.9,54.9,30.00,NW,310,5.8,5.8,61,0.00,OVC,FEW,0.05,WeatherDisplay:10.37,2013-05-11 20:56:00,
2013-05-11 16:01:00,68.8,56.6,30.00,NW,306,1.2,1.2,65,0.00,BKN,FEW,0.05,WeatherDisplay:10.37,2013-05-11 21:01:00,
2013-05-11 16:06:00,68.9,54.9,29.99,North,5,3.5,3.5,61,0.00,BKN,FEW,0.05,WeatherDisplay:10.37,2013-05-11 21:06:00,
2013-05-11 16:11:00,69.1,55.5,29.99,WNW,300,2.3,2.3,62,0.00,BKN,FEW,0.05,WeatherDisplay:10.37,2013-05-11 21:11:00,
2013-05-11 16:16:00,69.4,54.4,29.99,NNW,339,3.5,3.5,59,0.00,BKN,FEW,0.05,WeatherDisplay:10.37,2013-05-11 21:16:00,
2013-05-11 16:21:00,69.6,56.4,29.99,SW,228,3.5,3.5,63,0.00,BKN,FEW,0.05,WeatherDisplay:10.37,2013-05-11 21:21:00,
2013-05-11 16:26:00,69.7,55.2,29.99,WNW,300,2.3,2.3,60,0.00,BKN,FEW,0.05,WeatherDisplay:10.37,2013-05-11 21:26:00,
2013-05-11 16:31:00,69.8,54.4,29.99,NNW,327,3.5,3.5,58,0.00,BKN,FEW,0.05,WeatherDisplay:10.37,2013-05-11 21:31:00,
2013-05-11 16:36:00,69.9,56.3,29.99,WSW,246,3.5,3.5,62,0.00,BKN,FEW,0.05,WeatherDisplay:10.37,2013-05-11 21:36:00,
2013-05-11 16:41:00,69.9,55.8,29.99,North,5,5.8,5.8,61,0.00,BKN,FEW,0.05,WeatherDisplay:10.37,2013-05-11 21:41:00,
2013-05-11 16:46:00,69.8,55.3,29.99,NW,308,2.3,2.3,60,0.00,BKN,FEW,0.05,WeatherDisplay:10.37,2013-05-11 21:46:00,
2013-05-11 16:51:00,69.5,54.1,29.99,WNW,303,6.9,6.9,58,0.00,BKN,FEW,0.05,WeatherDisplay:10.37,2013-05-11 21:51:00,
2013-05-11 16:56:00,69.5,55.0,29.99,NNW,329,4.6,4.6,60,0.00,BKN,FEW,0.05,WeatherDisplay:10.37,2013-05-11 21:56:00,
2013-05-11 17:01:00,69.3,55.7,29.99,West,276,3.5,0.0,62,0.00,FEW,,0.05,WeatherDisplay:10.37,2013-05-11 22:01:00,
2013-05-11 17:06:00,68.9,54.9,29.99,West,279,5.8,5.8,61,0.00,FEW,,0.05,WeatherDisplay:10.37,2013-05-11 22:06:00,
2013-05-11 17:11:00,68.7,54.7,29.99,WNW,298,5.8,5.8,61,0.00,FEW,,0.05,WeatherDisplay:10.37,2013-05-11 22:11:00,
2013-05-11 17:16:00,68.4,54.0,29.99,NNW,333,5.8,5.8,60,0.00,FEW,,0.05,WeatherDisplay:10.37,2013-05-11 22:16:00,
2013-05-11 17:21:00,68.6,54.2,29.98,West,263,2.3,2.3,60,0.00,FEW,,0.05,WeatherDisplay:10.37,2013-05-11 22:21:00,
2013-05-11 17:26:00,69.0,55.9,29.98,NW,323,1.2,0.0,63,0.00,FEW,,0.05,WeatherDisplay:10.37,2013-05-11 22:26:00,
2013-05-11 17:31:00,69.5,54.5,29.98,WNW,295,2.3,2.3,59,0.00,FEW,,0.05,WeatherDisplay:10.37,2013-05-11 22:31:00,
2013-05-11 17:36:00,69.8,54.4,29.98,WSW,250,2.3,2.3,58,0.00,FEW,,0.05,WeatherDisplay:10.37,2013-05-11 22:36:00,
2013-05-11 17:41:00,70.1,54.2,29.97,North,5,2.3,2.3,57,0.00,FEW,,0.05,WeatherDisplay:10.37,2013-05-11 22:41:00,
2013-05-11 17:46:00,70.2,53.3,29.96,WNW,289,1.2,1.2,55,0.00,FEW,,0.05,WeatherDisplay:10.37,2013-05-11 22:46:00,
2013-05-11 17:51:00,70.4,53.0,29.96,West,279,0.0,0.2,54,0.00,FEW,,0.05,WeatherDisplay:10.37,2013-05-11 22:51:00,
2013-05-11 17:56:00,70.3,52.4,29.96,SW,214,2.3,2.3,53,0.00,FEW,,0.05,WeatherDisplay:10.37,2013-05-11 22:56:00,
2013-05-11 18:01:00,70.1,53.2,29.96,SW,216,0.0,0.0,55,0.00,CLR,FEW,0.05,WeatherDisplay:10.37,2013-05-11 23:01:00,
2013-05-11 18:06:00,70.2,54.2,29.96,NW,310,2.3,2.3,57,0.00,CLR,FEW,0.05,WeatherDisplay:10.37,2013-05-11 23:06:00,
2013-05-11 18:11:00,70.0,53.1,29.96,WSW,254,1.2,0.0,55,0.00,CLR,FEW,0.05,WeatherDisplay:10.37,2013-05-11 23:11:00,
2013-05-11 18:16:00,69.7,52.8,29.96,WSW,254,2.3,0.0,55,0.00,CLR,FEW,0.05,WeatherDisplay:10.37,2013-05-11 23:16:00,
2013-05-11 18:21:00,69.5,55.5,29.96,WSW,254,0.0,0.0,61,0.00,CLR,FEW,0.05,WeatherDisplay:10.37,2013-05-11 23:21:00,
2013-05-11 18:26:00,69.0,52.6,29.96,WSW,254,1.2,1.2,56,0.00,CLR,FEW,0.05,WeatherDisplay:10.37,2013-05-11 23:26:00,
2013-05-11 18:31:00,68.6,55.1,29.96,WSW,254,0.0,0.0,62,0.00,CLR,FEW,0.05,WeatherDisplay:10.37,2013-05-11 23:31:00,
2013-05-11 18:36:00,68.1,55.0,29.96,WSW,254,0.0,0.0,63,0.00,CLR,FEW,0.05,WeatherDisplay:10.37,2013-05-11 23:36:00,
2013-05-11 18:41:00,67.6,54.6,29.96,WSW,254,0.0,0.0,63,0.00,CLR,FEW,0.05,WeatherDisplay:10.37,2013-05-11 23:41:00,
2013-05-11 18:46:00,67.2,54.6,29.96,WSW,254,0.0,0.0,64,0.00,CLR,FEW,0.05,WeatherDisplay:10.37,2013-05-11 23:46:00,
2013-05-11 18:51:00,66.7,55.0,29.97,WSW,254,0.0,0.0,66,0.00,CLR,FEW,0.05,WeatherDisplay:10.37,2013-05-11 23:51:00,
2013-05-11 18:56:00,66.1,55.2,29.97,WSW,254,0.0,0.0,68,0.00,CLR,FEW,0.05,WeatherDisplay:10.37,2013-05-11 23:56:00,
2013-05-11 19:01:00,65.4,55.4,29.97,WSW,254,0.0,0.0,70,0.00,CLR,FEW,0.05,WeatherDisplay:10.37,2013-05-12 00:01:00,
2013-05-11 19:06:00,65.0,55.4,29.97,WSW,254,0.0,0.0,71,0.00,CLR,FEW,0.05,WeatherDisplay:10.37,2013-05-12 00:06:00,
2013-05-11 19:11:00,64.8,54.8,29.97,WSW,254,0.0,0.0,70,0.00,CLR,FEW,0.05,WeatherDisplay:10.37,2013-05-12 00:11:00,
2013-05-11 19:16:00,64.5,54.9,29.97,WSW,254,0.0,0.0,71,0.00,CLR,FEW,0.05,WeatherDisplay:10.37,2013-05-12 00:16:00,
2013-05-11 19:21:00,64.2,54.6,29.97,WSW,254,0.0,0.0,71,0.00,CLR,FEW,0.05,WeatherDisplay:10.37,2013-05-12 00:21:00,
2013-05-11 19:26:00,64.0,55.2,29.97,WSW,254,0.0,0.0,73,0.00,CLR,FEW,0.05,WeatherDisplay:10.37,2013-05-12 00:26:00,
2013-05-11 19:31:00,63.7,54.9,29.97,WSW,254,0.0,0.0,73,0.00,CLR,FEW,0.05,WeatherDisplay:10.37,2013-05-12 00:31:00,
2013-05-11 19:36:00,63.4,55.3,29.97,WSW,254,0.0,0.0,75,0.00,CLR,FEW,0.05,WeatherDisplay:10.37,2013-05-12 00:36:00,
2013-05-11 19:41:00,63.0,55.7,29.97,WSW,254,0.0,0.0,77,0.00,CLR,FEW,0.05,WeatherDisplay:10.37,2013-05-12 00:41:00,
2013-05-11 19:46:00,62.6,55.6,29.97,WSW,254,0.0,0.0,78,0.00,CLR,FEW,0.05,WeatherDisplay:10.37,2013-05-12 00:46:00,
2013-05-11 19:51:00,62.3,55.0,29.97,WSW,254,0.0,0.0,77,0.00,CLR,FEW,0.05,WeatherDisplay:10.37,2013-05-12 00:51:00,
2013-05-11 19:56:00,62.0,55.1,29.98,WSW,254,0.0,0.0,78,0.00,CLR,FEW,0.05,WeatherDisplay:10.37,2013-05-12 00:56:00,
2013-05-11 20:01:00,61.8,55.6,29.98,WSW,254,0.0,0.0,80,0.00,OVC,FEW,0.05,WeatherDisplay:10.37,2013-05-12 01:01:00,
2013-05-11 20:06:00,61.6,55.4,29.98,WSW,254,0.0,0.0,80,0.00,OVC,FEW,0.05,WeatherDisplay:10.37,2013-05-12 01:06:00,
2013-05-11 20:12:00,61.5,56.0,29.98,WSW,254,0.0,0.0,82,0.00,OVC,FEW,0.05,WeatherDisplay:10.37,2013-05-12 01:12:00,
2013-05-11 20:17:00,61.6,56.4,29.99,WSW,254,0.0,0.0,83,0.00,OVC,FEW,0.05,WeatherDisplay:10.37,2013-05-12 01:17:00,
2013-05-11 20:22:00,61.6,57.0,29.99,WSW,254,0.0,0.0,85,0.00,OVC,FEW,0.05,WeatherDisplay:10.37,2013-05-12 01:22:00,
2013-05-11 20:27:00,61.6,57.4,29.99,WSW,254,0.0,0.0,86,0.00,OVC,FEW,0.05,WeatherDisplay:10.37,2013-05-12 01:27:00,
2013-05-11 20:32:00,61.5,57.3,29.99,WSW,254,0.0,0.0,86,0.00,OVC,FEW,0.05,WeatherDisplay:10.37,2013-05-12 01:32:00,
2013-05-11 20:37:00,61.4,57.2,30.00,WSW,254,0.0,0.0,86,0.00,-RA,FEW,0.05,WeatherDisplay:10.37,2013-05-12 01:37:00,
2013-05-11 20:42:00,61.3,57.4,30.00,WSW,254,0.0,0.0,87,0.00,-RA,FEW,0.05,WeatherDisplay:10.37,2013-05-12 01:42:00,
2013-05-11 20:47:00,61.3,57.4,30.00,NNW,344,1.2,0.0,87,0.00,-RA,FEW,0.05,WeatherDisplay:10.37,2013-05-12 01:47:00,
2013-05-11 20:52:00,61.3,57.4,30.00,SE,138,0.0,0.0,87,0.00,-RA,FEW,0.05,WeatherDisplay:10.37,2013-05-12 01:52:00,
2013-05-11 20:57:00,61.3,57.4,30.01,SE,138,0.0,0.0,87,0.00,-RA,FEW,0.05,WeatherDisplay:10.37,2013-05-12 01:57:00,
2013-05-11 21:02:00,61.2,57.6,30.01,SE,138,0.0,0.0,88,0.00,-DZ,FEW,0.05,WeatherDisplay:10.37,2013-05-12 02:02:00,
2013-05-11 21:07:00,61.1,57.5,30.02,SE,138,0.0,0.0,88,0.00,-DZ,FEW,0.05,WeatherDisplay:10.37,2013-05-12 02:07:00,
2013-05-11 21:12:00,61.1,57.5,30.02,SE,138,0.0,0.0,88,0.00,-DZ,FEW,0.05,WeatherDisplay:10.37,2013-05-12 02:12:00,
2013-05-11 21:17:00,60.9,57.6,30.02,SE,138,0.0,0.0,89,0.00,-DZ,FEW,0.05,WeatherDisplay:10.37,2013-05-12 02:17:00,
2013-05-11 21:22:00,60.8,57.8,30.03,SE,138,0.0,0.0,90,0.00,OVC,FEW,0.05,WeatherDisplay:10.37,2013-05-12 02:22:00,
2013-05-11 21:27:00,60.6,57.7,30.03,NNW,329,4.6,4.6,90,0.00,OVC,FEW,0.05,WeatherDisplay:10.37,2013-05-12 02:27:00,
2013-05-11 21:32:00,60.5,57.6,30.03,NNW,329,0.0,0.0,90,0.00,OVC,FEW,0.05,WeatherDisplay:10.37,2013-05-12 02:32:00,
2013-05-11 21:37:00,60.6,57.7,30.04,NNW,329,0.0,0.0,90,0.00,OVC,FEW,0.05,WeatherDisplay:10.37,2013-05-12 02:37:00,
2013-05-11 21:42:00,60.6,58.0,30.04,NNW,329,0.0,0.0,91,0.00,OVC,FEW,0.05,WeatherDisplay:10.37,2013-05-12 02:42:00,
2013-05-11 21:47:00,60.7,55.5,30.04,NNE,22,8.1,8.1,83,0.00,OVC,FEW,0.05,WeatherDisplay:10.37,2013-05-12 02:47:00,
2013-05-11 21:52:00,61.5,55.6,30.05,NNW,329,6.9,6.9,81,0.00,OVC,FEW,0.05,WeatherDisplay:10.37,2013-05-12 02:52:00,
2013-05-11 21:57:00,61.9,54.2,30.06,NNW,327,4.6,4.6,76,0.00,OVC,FEW,0.05,WeatherDisplay:10.37,2013-05-12 02:57:00,
2013-05-11 22:02:00,62.0,53.6,30.06,WNW,295,4.6,4.6,74,0.00,OVC,FEW,0.05,WeatherDisplay:10.37,2013-05-12 03:02:00,
2013-05-11 22:07:00,62.1,53.3,30.06,NW,314,5.8,5.8,73,0.00,OVC,FEW,0.05,WeatherDisplay:10.37,2013-05-12 03:07:00,
2013-05-11 22:12:00,62.1,52.6,30.07,North,355,9.6,9.6,71,0.00,OVC,FEW,0.05,WeatherDisplay:10.37,2013-05-12 03:12:00,
2013-05-11 22:17:00,62.1,52.2,30.07,North,5,5.8,5.8,70,0.00,OVC,FEW,0.05,WeatherDisplay:10.37,2013-05-12 03:17:00,
2013-05-11 22:22:00,61.9,52.0,30.07,NW,314,11.5,11.5,70,0.00,OVC,FEW,0.05,WeatherDisplay:10.37,2013-05-12 03:22:00,
2013-05-11 22:27:00,61.7,51.8,30.07,NW,311,6.9,6.9,70,0.00,OVC,FEW,0.05,WeatherDisplay:10.37,2013-05-12 03:27:00,
2013-05-11 22:32:00,61.5,51.6,30.08,NNW,336,8.1,8.1,70,0.00,OVC,FEW,0.05,WeatherDisplay:10.37,2013-05-12 03:32:00,
2013-05-11 22:37:00,61.3,51.8,30.08,WNW,286,4.6,4.6,71,0.00,OVC,FEW,0.05,WeatherDisplay:10.37,2013-05-12 03:37:00,
2013-05-11 22:42:00,60.9,51.4,30.08,NW,323,5.8,5.8,71,0.00,OVC,FEW,0.05,WeatherDisplay:10.37,2013-05-12 03:42:00,
2013-05-11 22:47:00,60.6,51.1,30.08,NNE,28,8.1,8.1,71,0.00,OVC,FEW,0.05,WeatherDisplay:10.37,2013-05-12 03:47:00,
2013-05-11 22:52:00,60.4,51.0,30.09,NNW,331,4.6,4.6,71,0.00,OVC,FEW,0.05,WeatherDisplay:10.37,2013-05-12 03:52:00,
2013-05-11 22:57:00,60.1,50.3,30.09,NNW,347,6.9,6.9,70,0.00,OVC,FEW,0.05,WeatherDisplay:10.37,2013-05-12 03:57:00,
2013-05-11 23:01:00,59.9,50.1,30.09,NE,39,3.5,3.5,70,0.00,OVC,FEW,0.05,WeatherDisplay:10.37,2013-05-12 04:01:00,
2013-05-11 23:06:00,59.5,49.3,30.09,North,360,5.8,5.8,69,0.00,OVC,FEW,0.05,WeatherDisplay:10.37,2013-05-12 04:06:00,
2013-05-11 23:11:00,59.2,49.4,30.09,North,360,4.6,4.6,70,0.00,OVC,FEW,0.05,WeatherDisplay:10.37,2013-05-12 04:11:00,
2013-05-11 23:16:00,58.8,49.4,30.09,NW,323,5.8,5.8,71,0.00,OVC,FEW,0.05,WeatherDisplay:10.37,2013-05-12 04:16:00,
2013-05-11 23:21:00,58.6,48.8,30.09,NNE,16,6.9,6.9,70,0.00,SCT,FEW,0.05,WeatherDisplay:10.37,2013-05-12 04:21:00,
2013-05-11 23:26:00,58.4,47.5,30.10,NNE,28,11.5,11.5,67,0.00,SCT,FEW,0.05,WeatherDisplay:10.37,2013-05-12 04:26:00,
2013-05-11 23:31:00,58.2,47.7,30.10,North,360,8.1,8.1,68,0.00,SCT,FEW,0.05,WeatherDisplay:10.37,2013-05-12 04:31:00,
2013-05-11 23:36:00,58.0,47.5,30.10,North,5,3.5,3.5,68,0.00,SCT,FEW,0.05,WeatherDisplay:10.37,2013-05-12 04:36:00,
2013-05-11 23:41:00,57.7,47.2,30.10,NNE,27,5.8,5.8,68,0.00,SCT,FEW,0.05,WeatherDisplay:10.37,2013-05-12 04:41:00,
2013-05-11 23:46:00,57.4,47.3,30.11,NW,317,2.3,2.3,69,0.00,SCT,FEW,0.05,WeatherDisplay:10.37,2013-05-12 04:46:00,
2013-05-11 23:51:00,57.2,47.5,30.11,NW,306,3.5,3.5,70,0.00,SCT,FEW,0.05,WeatherDisplay:10.37,2013-05-12 04:51:00,
2013-05-11 23:56:00,56.9,47.2,30.11,North,5,6.9,6.9,70,0.00,SCT,FEW,0.05,WeatherDisplay:10.37,2013-05-12 04:56:00,